sensor_id;sensor_type;location;lat;lon;timestamp;pressure;altitude;pressure_sealevel;temperature
15360;BMP280;7779;49.596;11.070;2023-03-01T00:02:21;99284.69;;;1.74
15360;BMP280;7779;49.596;11.070;2023-03-01T00:04:47;99283.75;;;1.80
15360;BMP280;7779;49.596;11.070;2023-03-01T00:07:13;99280.28;;;1.87
15360;BMP280;7779;49.596;11.070;2023-03-01T00:09:39;99280.94;;;1.93
15360;BMP280;7779;49.596;11.070;2023-03-01T00:12:06;99277.63;;;2.00
15360;BMP280;7779;49.596;11.070;2023-03-01T00:14:32;99276.81;;;2.08
15360;BMP280;7779;49.596;11.070;2023-03-01T00:16:57;99276.88;;;2.17
15360;BMP280;7779;49.596;11.070;2023-03-01T00:19:23;99274.31;;;2.24
15360;BMP280;7779;49.596;11.070;2023-03-01T00:21:49;99270.84;;;2.30
15360;BMP280;7779;49.596;11.070;2023-03-01T00:24:15;99274.81;;;2.36
15360;BMP280;7779;49.596;11.070;2023-03-01T00:26:41;99270.66;;;2.44
15360;BMP280;7779;49.596;11.070;2023-03-01T00:29:07;99262.25;;;2.50
15360;BMP280;7779;49.596;11.070;2023-03-01T00:31:34;99266.03;;;2.55
15360;BMP280;7779;49.596;11.070;2023-03-01T00:34:03;99272.50;;;2.62
15360;BMP280;7779;49.596;11.070;2023-03-01T00:36:33;99262.91;;;2.65
15360;BMP280;7779;49.596;11.070;2023-03-01T00:39:00;99269.16;;;2.70
15360;BMP280;7779;49.596;11.070;2023-03-01T00:41:26;99263.81;;;2.73
15360;BMP280;7779;49.596;11.070;2023-03-01T00:43:53;99259.16;;;2.76
15360;BMP280;7779;49.596;11.070;2023-03-01T00:46:22;99261.94;;;2.79
15360;BMP280;7779;49.596;11.070;2023-03-01T00:48:49;99261.19;;;2.80
15360;BMP280;7779;49.596;11.070;2023-03-01T00:51:26;99257.44;;;2.84
15360;BMP280;7779;49.596;11.070;2023-03-01T00:53:55;99259.91;;;2.84
15360;BMP280;7779;49.596;11.070;2023-03-01T00:56:23;99262.38;;;2.84
15360;BMP280;7779;49.596;11.070;2023-03-01T00:58:49;99257.44;;;2.84
15360;BMP280;7779;49.596;11.070;2023-03-01T01:01:22;99244.03;;;2.82
15360;BMP280;7779;49.596;11.070;2023-03-01T01:04:04;99253.94;;;2.82
15360;BMP280;7779;49.596;11.070;2023-03-01T01:06:41;99242.16;;;2.79
15360;BMP280;7779;49.596;11.070;2023-03-01T01:09:14;99239.38;;;2.76
15360;BMP280;7779;49.596;11.070;2023-03-01T01:11:49;99233.56;;;2.76
15360;BMP280;7779;49.596;11.070;2023-03-01T01:14:16;99239.09;;;2.73
15360;BMP280;7779;49.596;11.070;2023-03-01T01:16:42;99234.13;;;2.73
15360;BMP280;7779;49.596;11.070;2023-03-01T01:19:10;99229.88;;;2.72
15360;BMP280;7779;49.596;11.070;2023-03-01T01:21:36;99222.47;;;2.72
15360;BMP280;7779;49.596;11.070;2023-03-01T01:24:04;99220.69;;;2.71
15360;BMP280;7779;49.596;11.070;2023-03-01T01:26:33;99215.75;;;2.71
15360;BMP280;7779;49.596;11.070;2023-03-01T01:29:01;99210.81;;;2.71
15360;BMP280;7779;49.596;11.070;2023-03-01T01:31:28;99211.72;;;2.72
15360;BMP280;7779;49.596;11.070;2023-03-01T01:33:55;99206.75;;;2.72
15360;BMP280;7779;49.596;11.070;2023-03-01T01:36:22;99205.16;;;2.72
15360;BMP280;7779;49.596;11.070;2023-03-01T01:38:48;99203.00;;;2.75
15360;BMP280;7779;49.596;11.070;2023-03-01T01:41:18;99193.81;;;2.74
15360;BMP280;7779;49.596;11.070;2023-03-01T01:44:09;99193.97;;;2.76
15360;BMP280;7779;49.596;11.070;2023-03-01T01:49:25;99197.13;;;2.75
15360;BMP280;7779;49.596;11.070;2023-03-01T01:52:16;99189.72;;;2.75
15360;BMP280;7779;49.596;11.070;2023-03-01T01:57:26;99187.13;;;2.73
15360;BMP280;7779;49.596;11.070;2023-03-01T01:59:58;99183.03;;;2.74
15360;BMP280;7779;49.596;11.070;2023-03-01T02:02:26;99179.69;;;2.73
15360;BMP280;7779;49.596;11.070;2023-03-01T02:05:03;99183.19;;;2.75
15360;BMP280;7779;49.596;11.070;2023-03-01T02:07:35;99170.66;;;2.74
15360;BMP280;7779;49.596;11.070;2023-03-01T02:10:02;99168.19;;;2.74
15360;BMP280;7779;49.596;11.070;2023-03-01T02:12:29;99169.81;;;2.73
15360;BMP280;7779;49.596;11.070;2023-03-01T02:14:54;99171.53;;;2.74
15360;BMP280;7779;49.596;11.070;2023-03-01T02:17:21;99163.09;;;2.72
15360;BMP280;7779;49.596;11.070;2023-03-01T02:22:37;99163.09;;;2.72
15360;BMP280;7779;49.596;11.070;2023-03-01T02:28:29;99153.47;;;2.67
15360;BMP280;7779;49.596;11.070;2023-03-01T02:30:55;99154.94;;;2.65
15360;BMP280;7779;49.596;11.070;2023-03-01T02:33:40;99156.53;;;2.65
15360;BMP280;7779;49.596;11.070;2023-03-01T02:36:17;99149.13;;;2.65
15360;BMP280;7779;49.596;11.070;2023-03-01T02:38:44;99149.13;;;2.65
15360;BMP280;7779;49.596;11.070;2023-03-01T02:41:15;99147.34;;;2.64
15360;BMP280;7779;49.596;11.070;2023-03-01T02:43:42;99148.06;;;2.63
15360;BMP280;7779;49.596;11.070;2023-03-01T02:46:21;99146.47;;;2.63
15360;BMP280;7779;49.596;11.070;2023-03-01T02:48:57;99146.31;;;2.62
15360;BMP280;7779;49.596;11.070;2023-03-01T02:51:43;99147.03;;;2.61
15360;BMP280;7779;49.596;11.070;2023-03-01T02:54:21;99146.16;;;2.60
15360;BMP280;7779;49.596;11.070;2023-03-01T02:56:49;99145.16;;;2.58
15360;BMP280;7779;49.596;11.070;2023-03-01T02:59:21;99140.34;;;2.60
15360;BMP280;7779;49.596;11.070;2023-03-01T03:01:48;99138.59;;;2.59
15360;BMP280;7779;49.596;11.070;2023-03-01T03:04:19;99135.25;;;2.58
15360;BMP280;7779;49.596;11.070;2023-03-01T03:06:50;99140.06;;;2.57
15360;BMP280;7779;49.596;11.070;2023-03-01T03:09:17;99135.09;;;2.57
15360;BMP280;7779;49.596;11.070;2023-03-01T03:11:44;99140.06;;;2.57
15360;BMP280;7779;49.596;11.070;2023-03-01T03:14:13;99133.38;;;2.56
15360;BMP280;7779;49.596;11.070;2023-03-01T03:16:48;99131.59;;;2.55
15360;BMP280;7779;49.596;11.070;2023-03-01T03:19:18;99138.72;;;2.52
15360;BMP280;7779;49.596;11.070;2023-03-01T03:21:44;99131.16;;;2.50
15360;BMP280;7779;49.596;11.070;2023-03-01T03:24:10;99135.81;;;2.47
15360;BMP280;7779;49.596;11.070;2023-03-01T03:26:36;99124.75;;;2.44
15360;BMP280;7779;49.596;11.070;2023-03-01T03:29:02;99128.66;;;2.42
15360;BMP280;7779;49.596;11.070;2023-03-01T03:31:28;99125.72;;;2.37
15360;BMP280;7779;49.596;11.070;2023-03-01T03:33:54;99126.31;;;2.35
15360;BMP280;7779;49.596;11.070;2023-03-01T03:36:23;99131.69;;;2.31
15360;BMP280;7779;49.596;11.070;2023-03-01T03:38:49;99132.09;;;2.27
15360;BMP280;7779;49.596;11.070;2023-03-01T03:41:16;99122.75;;;2.25
15360;BMP280;7779;49.596;11.070;2023-03-01T03:43:42;99119.28;;;2.23
15360;BMP280;7779;49.596;11.070;2023-03-01T03:46:11;99123.34;;;2.22
15360;BMP280;7779;49.596;11.070;2023-03-01T03:48:43;99126.53;;;2.21
15360;BMP280;7779;49.596;11.070;2023-03-01T03:51:14;99119.84;;;2.20
15360;BMP280;7779;49.596;11.070;2023-03-01T03:53:41;99120.72;;;2.21
15360;BMP280;7779;49.596;11.070;2023-03-01T03:56:08;99117.22;;;2.19
15360;BMP280;7779;49.596;11.070;2023-03-01T03:58:34;99121.31;;;2.18
15360;BMP280;7779;49.596;11.070;2023-03-01T04:01:00;99119.53;;;2.17
15360;BMP280;7779;49.596;11.070;2023-03-01T04:03:28;99113.72;;;2.17
15360;BMP280;7779;49.596;11.070;2023-03-01T04:05:58;99117.81;;;2.16
15360;BMP280;7779;49.596;11.070;2023-03-01T04:08:26;99116.03;;;2.15
15360;BMP280;7779;49.596;11.070;2023-03-01T04:11:00;99120.13;;;2.15
15360;BMP280;7779;49.596;11.070;2023-03-01T04:13:46;99117.34;;;2.12
15360;BMP280;7779;49.596;11.070;2023-03-01T04:16:11;99120.56;;;2.11
15360;BMP280;7779;49.596;11.070;2023-03-01T04:18:37;99119.81;;;2.12
15360;BMP280;7779;49.596;11.070;2023-03-01T04:21:03;99118.09;;;2.11
15360;BMP280;7779;49.596;11.070;2023-03-01T04:23:29;99127.97;;;2.11
15360;BMP280;7779;49.596;11.070;2023-03-01T04:25:57;99138.72;;;2.11
15360;BMP280;7779;49.596;11.070;2023-03-01T04:28:29;99128.50;;;2.08
15360;BMP280;7779;49.596;11.070;2023-03-01T04:30:58;99132.44;;;2.06
15360;BMP280;7779;49.596;11.070;2023-03-01T04:33:25;99130.53;;;2.04
15360;BMP280;7779;49.596;11.070;2023-03-01T04:35:51;99127.22;;;2.03
15360;BMP280;7779;49.596;11.070;2023-03-01T04:38:18;99136.03;;;2.01
15360;BMP280;7779;49.596;11.070;2023-03-01T04:40:44;99135.75;;;1.98
15360;BMP280;7779;49.596;11.070;2023-03-01T04:43:11;99122.91;;;1.94
15360;BMP280;7779;49.596;11.070;2023-03-01T04:45:40;99128.44;;;1.92
15360;BMP280;7779;49.596;11.070;2023-03-01T04:48:05;99129.16;;;1.91
15360;BMP280;7779;49.596;11.070;2023-03-01T04:50:32;99126.41;;;1.88
15360;BMP280;7779;49.596;11.070;2023-03-01T04:52:58;99126.41;;;1.88
15360;BMP280;7779;49.596;11.070;2023-03-01T04:55:26;99126.22;;;1.86
15360;BMP280;7779;49.596;11.070;2023-03-01T04:57:52;99117.63;;;1.83
15360;BMP280;7779;49.596;11.070;2023-03-01T05:00:19;99122.56;;;1.83
15360;BMP280;7779;49.596;11.070;2023-03-01T05:02:58;99119.09;;;1.81
15360;BMP280;7779;49.596;11.070;2023-03-01T05:05:32;99125.47;;;1.79
15360;BMP280;7779;49.596;11.070;2023-03-01T05:08:02;99124.44;;;1.77
15360;BMP280;7779;49.596;11.070;2023-03-01T05:10:32;99125.16;;;1.76
15360;BMP280;7779;49.596;11.070;2023-03-01T05:12:59;99123.41;;;1.75
15360;BMP280;7779;49.596;11.070;2023-03-01T05:15:31;99119.34;;;1.75
15360;BMP280;7779;49.596;11.070;2023-03-01T05:17:59;99118.47;;;1.75
15360;BMP280;7779;49.596;11.070;2023-03-01T05:20:27;99118.59;;;1.76
15360;BMP280;7779;49.596;11.070;2023-03-01T05:22:59;99113.81;;;1.78
15360;BMP280;7779;49.596;11.070;2023-03-01T05:25:25;99118.94;;;1.79
15360;BMP280;7779;49.596;11.070;2023-03-01T05:27:51;99107.44;;;1.80
15360;BMP280;7779;49.596;11.070;2023-03-01T05:30:17;99114.31;;;1.82
15360;BMP280;7779;49.596;11.070;2023-03-01T05:32:47;99110.38;;;1.84
15360;BMP280;7779;49.596;11.070;2023-03-01T05:35:16;99109.81;;;1.87
15360;BMP280;7779;49.596;11.070;2023-03-01T05:37:46;99115.06;;;1.90
15360;BMP280;7779;49.596;11.070;2023-03-01T05:40:18;99109.38;;;1.91
15360;BMP280;7779;49.596;11.070;2023-03-01T05:42:47;99113.63;;;1.92
15360;BMP280;7779;49.596;11.070;2023-03-01T05:45:15;99112.16;;;1.93
15360;BMP280;7779;49.596;11.070;2023-03-01T05:47:45;99107.22;;;1.93
15360;BMP280;7779;49.596;11.070;2023-03-01T05:53:10;99102.59;;;1.96
15360;BMP280;7779;49.596;11.070;2023-03-01T05:55:37;99109.00;;;1.94
15360;BMP280;7779;49.596;11.070;2023-03-01T05:58:07;99109.00;;;1.94
15360;BMP280;7779;49.596;11.070;2023-03-01T06:00:35;99091.69;;;1.94
15360;BMP280;7779;49.596;11.070;2023-03-01T06:03:01;99104.34;;;1.97
15360;BMP280;7779;49.596;11.070;2023-03-01T06:05:28;99106.09;;;1.98
15360;BMP280;7779;49.596;11.070;2023-03-01T06:07:55;99107.84;;;1.99
15360;BMP280;7779;49.596;11.070;2023-03-01T06:10:22;99107.13;;;2.00
15360;BMP280;7779;49.596;11.070;2023-03-01T06:12:48;99100.56;;;2.01
15360;BMP280;7779;49.596;11.070;2023-03-01T06:15:15;99089.97;;;2.02
15360;BMP280;7779;49.596;11.070;2023-03-01T06:17:44;99102.50;;;2.03
15360;BMP280;7779;49.596;11.070;2023-03-01T06:20:17;99100.88;;;2.04
15360;BMP280;7779;49.596;11.070;2023-03-01T06:22:44;99090.13;;;2.03
15360;BMP280;7779;49.596;11.070;2023-03-01T06:25:12;99104.22;;;2.04
15360;BMP280;7779;49.596;11.070;2023-03-01T06:27:38;99093.47;;;2.04
15360;BMP280;7779;49.596;11.070;2023-03-01T06:30:06;99092.88;;;2.06
15360;BMP280;7779;49.596;11.070;2023-03-01T06:32:32;99100.47;;;2.08
15360;BMP280;7779;49.596;11.070;2023-03-01T06:34:58;99098.84;;;2.08
15360;BMP280;7779;49.596;11.070;2023-03-01T06:37:25;99088.25;;;2.09
15360;BMP280;7779;49.596;11.070;2023-03-01T06:39:51;99093.38;;;2.11
15360;BMP280;7779;49.596;11.070;2023-03-01T06:42:16;99088.69;;;2.14
15360;BMP280;7779;49.596;11.070;2023-03-01T06:44:43;99088.16;;;2.16
15360;BMP280;7779;49.596;11.070;2023-03-01T06:47:09;99090.34;;;2.22
15360;BMP280;7779;49.596;11.070;2023-03-01T06:49:35;99089.06;;;2.25
15360;BMP280;7779;49.596;11.070;2023-03-01T06:52:01;99083.84;;;2.31
15360;BMP280;7779;49.596;11.070;2023-03-01T06:54:26;99090.25;;;2.37
15360;BMP280;7779;49.596;11.070;2023-03-01T06:56:52;99091.88;;;2.45
15360;BMP280;7779;49.596;11.070;2023-03-01T06:59:18;99093.63;;;2.54
15360;BMP280;7779;49.596;11.070;2023-03-01T07:01:44;99081.16;;;2.61
15360;BMP280;7779;49.596;11.070;2023-03-01T07:04:12;99076.19;;;2.70
15360;BMP280;7779;49.596;11.070;2023-03-01T07:06:39;99072.88;;;2.77
15360;BMP280;7779;49.596;11.070;2023-03-01T07:09:05;99070.38;;;2.86
15360;BMP280;7779;49.596;11.070;2023-03-01T07:11:30;99062.97;;;2.94
15360;BMP280;7779;49.596;11.070;2023-03-01T07:13:56;99063.84;;;3.03
15360;BMP280;7779;49.596;11.070;2023-03-01T07:16:23;99064.72;;;3.12
15360;BMP280;7779;49.596;11.070;2023-03-01T07:18:49;99063.84;;;3.20
15360;BMP280;7779;49.596;11.070;2023-03-01T07:21:15;99067.19;;;3.29
15360;BMP280;7779;49.596;11.070;2023-03-01T07:23:42;99070.50;;;3.38
15360;BMP280;7779;49.596;11.070;2023-03-01T07:26:07;99067.88;;;3.45
15360;BMP280;7779;49.596;11.070;2023-03-01T07:28:33;99062.03;;;3.52
15360;BMP280;7779;49.596;11.070;2023-03-01T07:31:05;99063.63;;;3.60
15360;BMP280;7779;49.596;11.070;2023-03-01T07:33:32;99061.13;;;3.69
15360;BMP280;7779;49.596;11.070;2023-03-01T07:36:00;99058.78;;;3.79
15360;BMP280;7779;49.596;11.070;2023-03-01T07:38:27;99053.03;;;3.88
15360;BMP280;7779;49.596;11.070;2023-03-01T07:40:53;99042.25;;;3.96
15360;BMP280;7779;49.596;11.070;2023-03-01T07:43:19;99043.09;;;4.05
15360;BMP280;7779;49.596;11.070;2023-03-01T07:45:46;99052.22;;;4.14
15360;BMP280;7779;49.596;11.070;2023-03-01T07:48:12;99042.22;;;4.23
15360;BMP280;7779;49.596;11.070;2023-03-01T07:50:37;99040.59;;;4.31
15360;BMP280;7779;49.596;11.070;2023-03-01T07:53:03;99040.41;;;4.38
15360;BMP280;7779;49.596;11.070;2023-03-01T07:55:30;99039.50;;;4.46
15360;BMP280;7779;49.596;11.070;2023-03-01T07:57:55;99035.34;;;4.55
15360;BMP280;7779;49.596;11.070;2023-03-01T08:00:21;99043.47;;;4.63
15360;BMP280;7779;49.596;11.070;2023-03-01T08:02:47;99032.47;;;4.69
15360;BMP280;7779;49.596;11.070;2023-03-01T08:05:13;99028.03;;;4.75
15360;BMP280;7779;49.596;11.070;2023-03-01T08:07:38;99027.72;;;4.80
15360;BMP280;7779;49.596;11.070;2023-03-01T08:10:04;99024.91;;;4.86
15360;BMP280;7779;49.596;11.070;2023-03-01T08:12:30;99022.09;;;4.91
15360;BMP280;7779;49.596;11.070;2023-03-01T08:14:56;99022.75;;;4.99
15360;BMP280;7779;49.596;11.070;2023-03-01T08:17:22;99022.56;;;5.05
15360;BMP280;7779;49.596;11.070;2023-03-01T08:19:48;99027.91;;;5.10
15360;BMP280;7779;49.596;11.070;2023-03-01T08:22:14;99024.34;;;5.16
15360;BMP280;7779;49.596;11.070;2023-03-01T08:24:40;99032.47;;;5.24
15360;BMP280;7779;49.596;11.070;2023-03-01T08:27:06;99017.22;;;5.29
15360;BMP280;7779;49.596;11.070;2023-03-01T08:29:32;99019.72;;;5.39
15360;BMP280;7779;49.596;11.070;2023-03-01T08:31:58;99012.06;;;5.46
15360;BMP280;7779;49.596;11.070;2023-03-01T08:34:23;99011.97;;;5.54
15360;BMP280;7779;49.596;11.070;2023-03-01T08:36:49;99004.41;;;5.63
15360;BMP280;7779;49.596;11.070;2023-03-01T08:39:19;98997.59;;;5.70
15360;BMP280;7779;49.596;11.070;2023-03-01T08:41:45;99002.50;;;5.79
15360;BMP280;7779;49.596;11.070;2023-03-01T08:44:13;99003.78;;;5.83
15360;BMP280;7779;49.596;11.070;2023-03-01T08:46:44;98994.47;;;5.91
15360;BMP280;7779;49.596;11.070;2023-03-01T08:49:17;98984.16;;;5.96
15360;BMP280;7779;49.596;11.070;2023-03-01T08:51:44;98977.19;;;6.02
15360;BMP280;7779;49.596;11.070;2023-03-01T08:54:15;98977.72;;;6.08
15360;BMP280;7779;49.596;11.070;2023-03-01T08:56:41;98976.59;;;6.15
15360;BMP280;7779;49.596;11.070;2023-03-01T08:59:08;98972.22;;;6.22
15360;BMP280;7779;49.596;11.070;2023-03-01T09:01:34;98975.47;;;6.31
15360;BMP280;7779;49.596;11.070;2023-03-01T09:04:00;98980.19;;;6.38
15360;BMP280;7779;49.596;11.070;2023-03-01T09:06:26;98980.94;;;6.47
15360;BMP280;7779;49.596;11.070;2023-03-01T09:08:51;98972.59;;;6.56
15360;BMP280;7779;49.596;11.070;2023-03-01T09:11:20;98967.50;;;6.64
15360;BMP280;7779;49.596;11.070;2023-03-01T09:13:48;98962.38;;;6.73
15360;BMP280;7779;49.596;11.070;2023-03-01T09:16:18;98967.84;;;6.79
15360;BMP280;7779;49.596;11.070;2023-03-01T09:18:49;98960.97;;;6.86
15360;BMP280;7779;49.596;11.070;2023-03-01T09:21:18;98974.66;;;6.91
15360;BMP280;7779;49.596;11.070;2023-03-01T09:23:46;98961.19;;;6.99
15360;BMP280;7779;49.596;11.070;2023-03-01T09:26:20;98964.41;;;7.08
15360;BMP280;7779;49.596;11.070;2023-03-01T09:28:55;98955.91;;;7.16
15360;BMP280;7779;49.596;11.070;2023-03-01T09:31:23;98952.41;;;7.24
15360;BMP280;7779;49.596;11.070;2023-03-01T09:33:53;98961.97;;;7.29
15360;BMP280;7779;49.596;11.070;2023-03-01T09:36:22;98953.31;;;7.36
15360;BMP280;7779;49.596;11.070;2023-03-01T09:38:49;98952.06;;;7.40
15360;BMP280;7779;49.596;11.070;2023-03-01T09:44:30;98956.25;;;7.51
15360;BMP280;7779;49.596;11.070;2023-03-01T09:46:59;98951.50;;;7.54
15360;BMP280;7779;49.596;11.070;2023-03-01T09:49:32;98949.47;;;7.60
15360;BMP280;7779;49.596;11.070;2023-03-01T09:52:26;98932.47;;;7.66
15360;BMP280;7779;49.596;11.070;2023-03-01T09:54:56;98934.47;;;7.70
15360;BMP280;7779;49.596;11.070;2023-03-01T09:57:55;98938.63;;;7.81
15360;BMP280;7779;49.596;11.070;2023-03-01T10:00:44;98931.59;;;7.87
15360;BMP280;7779;49.596;11.070;2023-03-01T10:03:26;98924.69;;;7.94
15360;BMP280;7779;49.596;11.070;2023-03-01T10:11:32;98907.34;;;8.17
15360;BMP280;7779;49.596;11.070;2023-03-01T10:14:34;98907.13;;;8.25
15360;BMP280;7779;49.596;11.070;2023-03-01T10:17:34;98912.59;;;8.31
15360;BMP280;7779;49.596;11.070;2023-03-01T10:20:23;98902.19;;;8.37
15360;BMP280;7779;49.596;11.070;2023-03-01T10:22:50;98906.75;;;8.42
15360;BMP280;7779;49.596;11.070;2023-03-01T10:28:35;98887.97;;;8.58
15360;BMP280;7779;49.596;11.070;2023-03-01T10:31:03;98892.53;;;8.64
15360;BMP280;7779;49.596;11.070;2023-03-01T10:33:37;98881.34;;;8.70
15360;BMP280;7779;49.596;11.070;2023-03-01T10:36:05;98881.88;;;8.78
15360;BMP280;7779;49.596;11.070;2023-03-01T10:38:57;98875.03;;;8.87
15360;BMP280;7779;49.596;11.070;2023-03-01T10:41:26;98871.34;;;8.93
15360;BMP280;7779;49.596;11.070;2023-03-01T10:43:58;98887.00;;;9.02
15360;BMP280;7779;49.596;11.070;2023-03-01T10:46:35;98877.50;;;9.09
15360;BMP280;7779;49.596;11.070;2023-03-01T10:51:50;98868.44;;;9.23
15360;BMP280;7779;49.596;11.070;2023-03-01T10:54:26;98868.78;;;9.27
15360;BMP280;7779;49.596;11.070;2023-03-01T10:57:29;98860.94;;;9.34
15360;BMP280;7779;49.596;11.070;2023-03-01T11:00:22;98865.63;;;9.41
15360;BMP280;7779;49.596;11.070;2023-03-01T11:03:08;98862.53;;;9.45
15360;BMP280;7779;49.596;11.070;2023-03-01T11:05:35;98846.19;;;9.50
15360;BMP280;7779;49.596;11.070;2023-03-01T11:08:02;98844.13;;;9.56
15360;BMP280;7779;49.596;11.070;2023-03-01T11:10:35;98832.81;;;9.61
15360;BMP280;7779;49.596;11.070;2023-03-01T11:13:18;98829.06;;;9.67
15360;BMP280;7779;49.596;11.070;2023-03-01T11:16:10;98823.69;;;9.74
15360;BMP280;7779;49.596;11.070;2023-03-01T11:18:37;98819.09;;;9.80
15360;BMP280;7779;49.596;11.070;2023-03-01T11:21:05;98803.59;;;9.85
15360;BMP280;7779;49.596;11.070;2023-03-01T11:23:32;98797.28;;;9.90
15360;BMP280;7779;49.596;11.070;2023-03-01T11:26:07;98797.13;;;10.00
15360;BMP280;7779;49.596;11.070;2023-03-01T11:28:39;98786.63;;;10.06
15360;BMP280;7779;49.596;11.070;2023-03-01T11:31:08;98791.38;;;10.14
15360;BMP280;7779;49.596;11.070;2023-03-01T11:33:57;98780.78;;;10.18
15360;BMP280;7779;49.596;11.070;2023-03-01T11:36:32;98780.03;;;10.19
15360;BMP280;7779;49.596;11.070;2023-03-01T11:42:12;98784.66;;;10.26
15360;BMP280;7779;49.596;11.070;2023-03-01T11:44:47;98781.56;;;10.30
15360;BMP280;7779;49.596;11.070;2023-03-01T11:50:48;98755.38;;;10.38
15360;BMP280;7779;49.596;11.070;2023-03-01T11:53:35;98755.56;;;10.41
15360;BMP280;7779;49.596;11.070;2023-03-01T12:02:15;98739.94;;;10.57
15360;BMP280;7779;49.596;11.070;2023-03-01T12:08:08;98734.91;;;10.70
15360;BMP280;7779;49.596;11.070;2023-03-01T12:11:07;98722.78;;;10.76
15360;BMP280;7779;49.596;11.070;2023-03-01T12:33:54;98696.81;;;11.16
15360;BMP280;7779;49.596;11.070;2023-03-01T12:39:40;98682.28;;;11.25
15360;BMP280;7779;49.596;11.070;2023-03-01T12:42:26;98671.66;;;11.29
15360;BMP280;7779;49.596;11.070;2023-03-01T12:48:24;98691.31;;;11.35
15360;BMP280;7779;49.596;11.070;2023-03-01T12:50:55;98670.44;;;11.36
15360;BMP280;7779;49.596;11.070;2023-03-01T12:53:27;98665.53;;;11.38
15360;BMP280;7779;49.596;11.070;2023-03-01T12:56:00;98664.06;;;11.41
15360;BMP280;7779;49.596;11.070;2023-03-01T13:04:53;98653.78;;;11.51
15360;BMP280;7779;49.596;11.070;2023-03-01T13:07:40;98656.56;;;11.56
15360;BMP280;7779;49.596;11.070;2023-03-01T13:10:32;98649.28;;;11.60
15360;BMP280;7779;49.596;11.070;2023-03-01T13:13:21;98654.59;;;11.65
15360;BMP280;7779;49.596;11.070;2023-03-01T13:15:48;98655.53;;;11.67
15360;BMP280;7779;49.596;11.070;2023-03-01T13:26:13;98641.31;;;11.81
15360;BMP280;7779;49.596;11.070;2023-03-01T13:33:58;98634.38;;;11.92
15360;BMP280;7779;49.596;11.070;2023-03-01T13:39:02;98629.78;;;11.99
15360;BMP280;7779;49.596;11.070;2023-03-01T13:41:52;98626.56;;;12.02
15360;BMP280;7779;49.596;11.070;2023-03-01T13:44:33;98634.91;;;12.01
15360;BMP280;7779;49.596;11.070;2023-03-01T13:49:55;98629.88;;;12.01
15360;BMP280;7779;49.596;11.070;2023-03-01T13:52:48;98614.00;;;12.02
15360;BMP280;7779;49.596;11.070;2023-03-01T13:55:24;98611.50;;;12.02
15360;BMP280;7779;49.596;11.070;2023-03-01T13:57:57;98604.94;;;12.04
15360;BMP280;7779;49.596;11.070;2023-03-01T14:03:26;98608.53;;;12.08
15360;BMP280;7779;49.596;11.070;2023-03-01T14:06:04;98614.44;;;12.09
15360;BMP280;7779;49.596;11.070;2023-03-01T14:08:35;98618.59;;;12.08
15360;BMP280;7779;49.596;11.070;2023-03-01T14:20:41;98620.88;;;12.04
15360;BMP280;7779;49.596;11.070;2023-03-01T14:23:13;98605.72;;;12.03
15360;BMP280;7779;49.596;11.070;2023-03-01T14:25:53;98603.28;;;12.04
15360;BMP280;7779;49.596;11.070;2023-03-01T14:28:31;98605.78;;;12.04
15360;BMP280;7779;49.596;11.070;2023-03-01T14:31:03;98607.44;;;12.04
15360;BMP280;7779;49.596;11.070;2023-03-01T14:33:34;98605.88;;;12.06
15360;BMP280;7779;49.596;11.070;2023-03-01T14:36:09;98606.75;;;12.06
15360;BMP280;7779;49.596;11.070;2023-03-01T14:38:46;98619.38;;;12.08
15360;BMP280;7779;49.596;11.070;2023-03-01T14:41:27;98620.16;;;12.07
15360;BMP280;7779;49.596;11.070;2023-03-01T14:43:59;98615.13;;;12.07
15360;BMP280;7779;49.596;11.070;2023-03-01T14:46:35;98604.31;;;12.08
15360;BMP280;7779;49.596;11.070;2023-03-01T14:51:50;98606.13;;;12.10
15360;BMP280;7779;49.596;11.070;2023-03-01T14:54:27;98595.22;;;12.09
15360;BMP280;7779;49.596;11.070;2023-03-01T14:56:58;98601.94;;;12.10
15360;BMP280;7779;49.596;11.070;2023-03-01T14:59:25;98598.66;;;12.11
15360;BMP280;7779;49.596;11.070;2023-03-01T15:01:55;98592.94;;;12.14
15360;BMP280;7779;49.596;11.070;2023-03-01T15:04:23;98596.34;;;12.14
15360;BMP280;7779;49.596;11.070;2023-03-01T15:06:54;98597.19;;;12.15
15360;BMP280;7779;49.596;11.070;2023-03-01T15:09:22;98601.34;;;12.14
15360;BMP280;7779;49.596;11.070;2023-03-01T15:11:48;98604.81;;;12.16
15360;BMP280;7779;49.596;11.070;2023-03-01T15:14:42;98602.31;;;12.16
15360;BMP280;7779;49.596;11.070;2023-03-01T15:17:38;98595.53;;;12.15
15360;BMP280;7779;49.596;11.070;2023-03-01T15:20:15;98605.56;;;12.15
15360;BMP280;7779;49.596;11.070;2023-03-01T15:22:45;98612.16;;;12.13
15360;BMP280;7779;49.596;11.070;2023-03-01T15:25:20;98600.31;;;12.11
15360;BMP280;7779;49.596;11.070;2023-03-01T15:27:48;98601.81;;;12.08
15360;BMP280;7779;49.596;11.070;2023-03-01T15:30:28;98596.59;;;12.05
15360;BMP280;7779;49.596;11.070;2023-03-01T15:35:51;98600.44;;;11.98
15360;BMP280;7779;49.596;11.070;2023-03-01T15:38:52;98602.88;;;11.97
15360;BMP280;7779;49.596;11.070;2023-03-01T15:41:38;98597.66;;;11.94
15360;BMP280;7779;49.596;11.070;2023-03-01T15:44:31;98616.81;;;11.92
15360;BMP280;7779;49.596;11.070;2023-03-01T15:46:57;98600.63;;;11.87
15360;BMP280;7779;49.596;11.070;2023-03-01T15:49:42;98610.53;;;11.84
15360;BMP280;7779;49.596;11.070;2023-03-01T15:52:22;98615.38;;;11.81
15360;BMP280;7779;49.596;11.070;2023-03-01T15:55:03;98613.47;;;11.77
15360;BMP280;7779;49.596;11.070;2023-03-01T15:57:29;98616.59;;;11.73
15360;BMP280;7779;49.596;11.070;2023-03-01T15:59:55;98616.41;;;11.70
15360;BMP280;7779;49.596;11.070;2023-03-01T16:02:23;98617.03;;;11.66
15360;BMP280;7779;49.596;11.070;2023-03-01T16:04:50;98624.13;;;11.59
15360;BMP280;7779;49.596;11.070;2023-03-01T16:07:16;98622.06;;;11.52
15360;BMP280;7779;49.596;11.070;2023-03-01T16:09:42;98607.44;;;11.45
15360;BMP280;7779;49.596;11.070;2023-03-01T16:12:15;98612.84;;;11.38
15360;BMP280;7779;49.596;11.070;2023-03-01T16:14:42;98604.78;;;11.29
15360;BMP280;7779;49.596;11.070;2023-03-01T16:17:07;98603.50;;;11.21
15360;BMP280;7779;49.596;11.070;2023-03-01T16:19:36;98611.34;;;11.13
15360;BMP280;7779;49.596;11.070;2023-03-01T16:22:03;98607.72;;;11.08
15360;BMP280;7779;49.596;11.070;2023-03-01T16:24:29;98609.88;;;11.02
15360;BMP280;7779;49.596;11.070;2023-03-01T16:26:55;98607.03;;;10.96
15360;BMP280;7779;49.596;11.070;2023-03-01T16:29:21;98610.78;;;10.90
15360;BMP280;7779;49.596;11.070;2023-03-01T16:31:47;98619.63;;;10.83
15360;BMP280;7779;49.596;11.070;2023-03-01T16:34:13;98615.78;;;10.75
15360;BMP280;7779;49.596;11.070;2023-03-01T16:36:39;98620.44;;;10.69